Time,TemperatureF,DewpointF,PressureIn,WindDirection,WindDirectionDegrees,WindSpeedMPH,WindSpeedGustMPH,Humidity,HourlyPrecipIn,Conditions,Clouds,dailyrainin,SoftwareType,DateUTC
2013-01-09 11:02:00,43.0,42.0,26.07,West,274,2.0,12.0,97,0.00,,,0.00,,2013-01-09 19:02:00,
2013-01-09 11:12:00,43.0,42.0,26.07,West,274,2.0,12.0,97,0.00,,,0.00,,2013-01-09 19:12:00,
2013-01-09 11:22:00,43.0,42.0,26.07,WSW,256,2.0,9.0,97,0.00,,,0.00,,2013-01-09 19:22:00,
2013-01-09 11:33:00,43.0,42.0,26.10,WNW,295,2.0,7.0,96,0.00,,,0.00,,2013-01-09 19:33:00,
2013-01-09 11:42:00,43.0,42.0,26.10,WNW,295,2.0,7.0,96,0.00,,,0.00,,2013-01-09 19:42:00,
2013-01-09 11:53:00,43.0,-99.9,26.03,North,-999,-999.0,2.0,-999,0.00,,,0.00,,2013-01-09 19:53:00,
2013-01-09 12:02:00,43.0,42.0,26.07,West,268,2.0,10.0,97,0.00,,,0.00,,2013-01-09 20:02:00,
2013-01-09 12:11:00,43.0,42.0,26.07,West,268,2.0,10.0,97,0.00,,,0.00,,2013-01-09 20:11:00,
2013-01-09 12:22:00,43.0,42.0,26.07,SW,235,4.0,12.0,95,0.00,,,0.00,,2013-01-09 20:22:00,
2013-01-09 12:32:00,43.0,42.0,25.87,WSW,256,3.0,11.0,95,0.00,,,0.00,,2013-01-09 20:32:00,
2013-01-09 12:42:00,43.0,42.0,25.87,WSW,256,3.0,11.0,95,0.00,,,0.00,,2013-01-09 20:42:00,
2013-01-09 12:52:00,43.0,42.0,25.84,West,264,3.0,7.0,95,0.00,,,0.00,,2013-01-09 20:52:00,
2013-01-09 13:02:00,44.0,42.0,25.86,SW,218,3.0,10.0,93,0.00,,,0.00,,2013-01-09 21:02:00,
2013-01-09 13:12:00,44.0,42.0,25.86,SW,218,3.0,10.0,93,0.00,,,0.00,,2013-01-09 21:12:00,
2013-01-09 13:22:00,44.0,42.0,25.82,WSW,250,5.0,14.0,93,0.00,,,0.00,,2013-01-09 21:22:00,
2013-01-09 13:33:00,44.0,41.0,25.79,SW,230,5.0,13.0,90,0.00,,,0.00,,2013-01-09 21:33:00,
2013-01-09 13:42:00,44.0,41.0,25.79,SW,230,5.0,13.0,90,0.00,,,0.00,,2013-01-09 21:42:00,
2013-01-09 13:52:00,44.0,41.0,25.87,SW,219,6.0,13.0,88,0.00,,,0.00,,2013-01-09 21:52:00,
2013-01-09 14:02:00,45.0,41.0,25.85,SW,229,6.0,12.0,85,0.00,,,0.00,,2013-01-09 22:02:00,
2013-01-09 14:12:00,45.0,41.0,25.85,SW,229,6.0,12.0,85,0.00,,,0.00,,2013-01-09 22:12:00,
2013-01-09 14:22:00,45.0,39.0,25.70,WSW,246,5.0,13.0,79,0.00,,,0.00,,2013-01-09 22:22:00,
2013-01-09 14:32:00,44.0,39.0,25.70,SW,232,4.0,11.0,83,0.00,,,0.00,,2013-01-09 22:32:00,
2013-01-09 14:42:00,44.0,39.0,25.70,SW,232,4.0,11.0,83,0.00,,,0.00,,2013-01-09 22:42:00,
2013-01-09 14:52:00,45.0,40.0,25.99,WSW,254,1.0,10.0,83,0.00,,,0.00,,2013-01-09 22:52:00,
2013-01-09 15:02:00,45.0,40.0,25.93,SW,230,2.0,9.0,82,0.00,,,0.00,,2013-01-09 23:02:00,
2013-01-09 15:12:00,45.0,40.0,25.93,SW,230,2.0,9.0,82,0.00,,,0.00,,2013-01-09 23:12:00,
2013-01-09 15:22:00,45.0,39.0,25.78,SW,220,7.0,14.0,80,0.00,,,0.00,,2013-01-09 23:22:00,
2013-01-09 15:32:00,45.0,40.0,25.95,SW,217,1.0,11.0,83,0.00,,,0.00,,2013-01-09 23:32:00,
2013-01-09 15:42:00,45.0,40.0,25.95,SW,217,1.0,11.0,83,0.00,,,0.00,,2013-01-09 23:42:00,
2013-01-09 15:52:00,45.0,40.0,25.90,SSW,206,4.0,9.0,83,0.00,,,0.00,,2013-01-09 23:52:00,
2013-01-09 16:02:00,44.0,39.0,25.99,WSW,241,4.0,11.0,81,0.00,,,0.00,,2013-01-10 00:02:00,
2013-01-09 16:12:00,44.0,39.0,25.99,WSW,241,4.0,11.0,81,0.00,,,0.00,,2013-01-10 00:12:00,
2013-01-09 16:22:00,44.0,39.0,25.99,WSW,243,4.0,10.0,81,0.00,,,0.00,,2013-01-10 00:22:00,
2013-01-09 16:32:00,44.0,39.0,25.99,WSW,254,2.0,6.0,81,0.00,,,0.00,,2013-01-10 00:32:00,
2013-01-09 16:42:00,44.0,39.0,25.99,WSW,254,2.0,6.0,81,0.00,,,0.00,,2013-01-10 00:42:00,